EGPK

Glasgow Prestwick Airport

Glasgow, United Kingdom
METAR EGPK 231620Z 16014KT 9999 FEW030 05/M02 Q1020
Observed Flight Rules
Feb-23 @ 16:20 UTC (21 minutes ago) Visual Flight Rules
Wind Visibility Clouds
160° at 14 knots 10,000+ meters
  • Few at 3,000' AGL
Temperatures Readings
Current 5°C / 41°F
Dewpoint -2°C / 28°F
Humidity 61%
Altimeter 30.12" Hg
Pressure 1020 hPa
Elevation 20
METAR EGPK 231620Z 16014KT 9999 FEW030 05/M02 Q1020
Observed Flight Rules
Feb-23 @ 16:20 UTC
(21 minutes ago)
VFR
Wind Visibility
160° at 14 knots 10,000+ meters
Clouds
  • Few at 3,000' AGL
Temperature Dewpoint
5°C / 41°F -2°C / 28°F
Humidity Altimeter Pressure
61% 30.12" Hg 1020 hPa